createdAt,value
2018-05-08T00:00:11.438Z,67.52
2018-05-08T00:02:38.973Z,67.90
2018-05-08T00:05:06.476Z,68.00
2018-05-08T00:07:33.992Z,67.60
2018-05-08T00:10:01.486Z,67.97
2018-05-08T00:12:29.025Z,66.89
2018-05-08T00:14:56.525Z,67.36
2018-05-08T00:17:24.043Z,66.88
2018-05-08T00:19:51.543Z,67.22
2018-05-08T00:22:19.045Z,66.50
2018-05-08T00:24:46.513Z,66.50
2018-05-08T00:27:13.984Z,66.83
2018-05-08T00:29:41.494Z,67.14
2018-05-08T00:32:08.987Z,66.72
2018-05-08T00:34:36.495Z,67.67
2018-05-08T00:37:04.008Z,67.30
2018-05-08T00:39:31.567Z,67.07
2018-05-08T00:41:59.061Z,67.16
2018-05-08T00:44:26.680Z,67.57
2018-05-08T00:46:54.179Z,67.13
2018-05-08T00:49:21.845Z,67.72
2018-05-08T00:51:49.377Z,67.46
2018-05-08T00:54:16.873Z,67.82
2018-05-08T00:56:44.382Z,68.65
2018-05-08T00:59:11.865Z,68.04
2018-05-08T01:01:39.373Z,67.75
2018-05-08T01:04:06.897Z,68.11
2018-05-08T01:06:34.379Z,68.41
2018-05-08T01:09:01.842Z,67.69
2018-05-08T01:11:29.345Z,67.12
2018-05-08T01:13:56.809Z,67.77
2018-05-08T01:16:24.288Z,67.60
2018-05-08T01:18:51.789Z,67.24
2018-05-08T01:21:19.270Z,67.74
2018-05-08T01:23:46.761Z,68.31
2018-05-08T01:26:14.225Z,68.68
2018-05-08T01:28:41.714Z,68.47
2018-05-08T01:31:09.196Z,68.37
2018-05-08T01:33:36.673Z,69.13
2018-05-08T01:36:04.144Z,69.39
2018-05-08T01:38:31.656Z,69.47
2018-05-08T01:40:59.151Z,69.88
2018-05-08T01:43:26.664Z,69.58
2018-05-08T01:45:54.167Z,69.69
2018-05-08T01:48:21.730Z,70.25
2018-05-08T01:50:49.235Z,70.68
2018-05-08T01:53:16.732Z,71.01
2018-05-08T01:55:44.212Z,70.36
2018-05-08T01:58:11.697Z,71.30
2018-05-08T02:00:39.231Z,71.59
2018-05-08T02:03:06.712Z,71.79
2018-05-08T02:05:34.249Z,71.74
2018-05-08T02:08:01.743Z,72.01
2018-05-08T02:10:29.224Z,72.03
2018-05-08T02:12:56.757Z,71.75
2018-05-08T02:15:24.257Z,71.15
2018-05-08T02:17:51.772Z,70.47
2018-05-08T02:20:19.343Z,70.44
2018-05-08T02:22:46.778Z,70.56
2018-05-08T02:25:14.261Z,70.75
2018-05-08T02:27:41.754Z,70.20
2018-05-08T02:30:09.279Z,70.16
2018-05-08T02:32:36.754Z,70.10
2018-05-08T02:35:04.271Z,70.47
2018-05-08T02:37:31.788Z,69.77
2018-05-08T02:39:59.279Z,70.19
2018-05-08T02:42:26.784Z,68.80
2018-05-08T02:44:54.272Z,70.00
2018-05-08T02:47:21.792Z,70.13
2018-05-08T02:49:49.315Z,69.63
2018-05-08T02:52:16.797Z,69.89
2018-05-08T02:54:44.299Z,69.95
2018-05-08T02:57:11.774Z,69.47
2018-05-08T02:59:39.294Z,69.29
2018-05-08T03:02:06.792Z,68.46
2018-05-08T03:04:34.286Z,68.44
2018-05-08T03:07:01.795Z,69.08
2018-05-08T03:09:29.290Z,69.49
2018-05-08T03:11:56.782Z,69.71
2018-05-08T03:14:24.287Z,69.50
2018-05-08T03:16:52.095Z,69.17
2018-05-08T03:19:19.608Z,68.99
2018-05-08T03:21:47.108Z,69.34
2018-05-08T03:24:14.616Z,69.73
2018-05-08T03:26:42.084Z,70.28
2018-05-08T03:29:09.619Z,70.34
2018-05-08T03:31:37.105Z,70.76
2018-05-08T03:34:04.604Z,70.58
2018-05-08T03:36:32.092Z,70.85
2018-05-08T03:38:59.582Z,70.72
2018-05-08T03:41:27.100Z,70.98
2018-05-08T03:43:54.590Z,71.29
2018-05-08T03:46:22.100Z,71.43
2018-05-08T03:48:49.633Z,72.48
2018-05-08T03:51:17.166Z,73.48
2018-05-08T03:53:44.758Z,74.08
2018-05-08T03:56:12.281Z,74.65
2018-05-08T03:58:39.756Z,75.19
2018-05-08T04:01:19.083Z,75.94
2018-05-08T04:03:58.301Z,76.80
2018-05-08T04:06:31.319Z,77.85
2018-05-08T04:08:58.832Z,78.63
2018-05-08T04:11:26.343Z,78.57
2018-05-08T04:13:53.843Z,77.58
2018-05-08T04:16:21.356Z,78.26
2018-05-08T04:18:48.880Z,77.92
2018-05-08T04:21:16.377Z,78.66
2018-05-08T04:23:43.866Z,79.57
2018-05-08T04:26:12.299Z,79.32
2018-05-08T04:28:39.802Z,80.45
2018-05-08T04:31:07.290Z,79.91
2018-05-08T04:33:34.787Z,79.44
2018-05-08T04:36:02.299Z,78.82
2018-05-08T04:38:29.786Z,78.37
2018-05-08T04:40:57.288Z,78.34
2018-05-08T04:43:24.791Z,78.32
2018-05-08T04:45:52.267Z,78.57
2018-05-08T04:48:19.778Z,78.13
2018-05-08T04:50:47.264Z,78.00
2018-05-08T04:53:14.764Z,77.68
2018-05-08T04:55:42.258Z,77.80
2018-05-08T04:58:09.745Z,77.72
2018-05-08T05:00:37.496Z,77.58
2018-05-08T05:03:04.997Z,77.59
2018-05-08T05:05:32.497Z,77.63
2018-05-08T05:08:00.020Z,76.94
2018-05-08T05:10:27.512Z,76.91
2018-05-08T05:12:55.048Z,77.46
2018-05-08T05:15:22.540Z,76.72
2018-05-08T05:17:50.052Z,77.37
2018-05-08T05:20:17.544Z,75.87
2018-05-08T05:22:45.060Z,75.52
2018-05-08T05:25:12.572Z,75.37
2018-05-08T05:27:40.092Z,75.28
2018-05-08T05:30:07.573Z,75.67
2018-05-08T05:32:35.072Z,75.98
2018-05-08T05:35:02.616Z,75.64
2018-05-08T05:37:30.190Z,74.61
2018-05-08T05:39:57.744Z,74.74
2018-05-08T05:42:25.267Z,74.62
2018-05-08T05:44:52.737Z,74.46
2018-05-08T05:47:20.243Z,74.70
2018-05-08T05:49:47.761Z,74.71
2018-05-08T05:52:15.260Z,73.47
2018-05-08T05:54:42.773Z,72.74
2018-05-08T05:57:10.274Z,70.57
2018-05-08T05:59:37.795Z,68.41
2018-05-08T06:02:05.314Z,64.80
2018-05-08T06:04:33.067Z,63.91
2018-05-08T06:07:00.600Z,61.65
2018-05-08T06:09:28.108Z,61.62
2018-05-08T06:11:55.654Z,61.38
2018-05-08T06:14:23.205Z,62.31
2018-05-08T06:16:50.711Z,61.97
2018-05-08T06:19:18.189Z,62.05
2018-05-08T06:21:45.684Z,61.08
2018-05-08T06:24:13.162Z,59.43
2018-05-08T06:26:40.747Z,60.76
2018-05-08T06:29:08.150Z,60.50
2018-05-08T06:31:35.627Z,60.78
2018-05-08T06:34:03.179Z,59.36
2018-05-08T06:36:30.691Z,60.90
2018-05-08T06:38:58.248Z,60.60
2018-05-08T06:41:25.704Z,59.80
2018-05-08T06:43:53.168Z,58.73
2018-05-08T06:46:20.675Z,58.19
2018-05-08T06:48:48.208Z,59.52
2018-05-08T06:51:15.711Z,59.96
2018-05-08T06:53:43.192Z,59.81
2018-05-08T06:56:10.687Z,60.82
2018-05-08T06:58:38.171Z,57.61
2018-05-08T07:01:05.649Z,57.60
2018-05-08T07:03:33.152Z,57.43
2018-05-08T07:06:00.712Z,56.97
2018-05-08T07:08:28.197Z,57.65
2018-05-08T07:10:55.690Z,57.42
2018-05-08T07:13:23.164Z,56.32
2018-05-08T07:15:50.760Z,56.35
2018-05-08T07:18:18.216Z,57.47
2018-05-08T07:20:45.743Z,56.28
2018-05-08T07:23:13.245Z,55.73
2018-05-08T07:25:40.778Z,58.21
2018-05-08T07:28:08.307Z,55.09
2018-05-08T07:30:35.797Z,54.15
2018-05-08T07:33:03.303Z,54.38
2018-05-08T07:35:30.812Z,53.32
2018-05-08T07:37:58.298Z,55.81
2018-05-08T07:40:25.802Z,54.60
2018-05-08T07:42:53.341Z,53.46
2018-05-08T07:45:20.858Z,53.65
2018-05-08T07:47:48.376Z,51.63
2018-05-08T07:50:15.878Z,51.69
2018-05-08T07:52:43.410Z,52.57
2018-05-08T07:55:10.951Z,53.08
2018-05-08T07:57:38.450Z,51.83
2018-05-08T08:00:05.958Z,51.36
2018-05-08T08:02:33.465Z,50.16
2018-05-08T08:05:00.993Z,48.75
2018-05-08T08:07:28.460Z,47.86
2018-05-08T08:09:55.986Z,48.18
2018-05-08T08:12:23.735Z,46.12
2018-05-08T08:14:51.247Z,46.21
2018-05-08T08:17:18.756Z,46.12
2018-05-08T08:19:46.337Z,45.65
2018-05-08T08:22:13.865Z,44.89
2018-05-08T08:24:41.645Z,45.70
2018-05-08T08:27:09.205Z,45.87
2018-05-08T08:29:36.709Z,44.94
2018-05-08T08:32:04.221Z,47.01
2018-05-08T08:34:31.707Z,45.23
2018-05-08T08:36:59.168Z,48.34
2018-05-08T08:39:26.671Z,46.37
2018-05-08T08:41:54.184Z,47.13
2018-05-08T08:44:21.657Z,46.48
2018-05-08T08:46:49.182Z,45.16
2018-05-08T08:49:16.660Z,45.24
2018-05-08T08:51:44.140Z,44.98
2018-05-08T08:54:11.630Z,44.47
2018-05-08T08:56:39.132Z,44.00
2018-05-08T08:59:06.623Z,44.97
2018-05-08T09:01:34.157Z,45.56
2018-05-08T09:04:01.714Z,43.98
2018-05-08T09:06:29.166Z,44.26
2018-05-08T09:08:56.662Z,44.27
2018-05-08T09:11:24.189Z,46.15
2018-05-08T09:13:51.690Z,44.98
2018-05-08T09:16:19.223Z,45.15
2018-05-08T09:18:46.711Z,45.59
2018-05-08T09:21:14.222Z,45.78
2018-05-08T09:23:41.705Z,45.29
2018-05-08T09:26:09.192Z,45.79
2018-05-08T09:28:36.693Z,45.23
2018-05-08T09:31:04.170Z,45.17
2018-05-08T09:33:31.660Z,45.16
2018-05-08T09:35:59.199Z,45.02
2018-05-08T09:38:26.738Z,43.48
2018-05-08T09:40:54.287Z,45.74
2018-05-08T09:43:21.790Z,43.55
2018-05-08T09:45:49.289Z,43.26
2018-05-08T09:48:16.789Z,43.29
2018-05-08T09:50:44.307Z,43.64
2018-05-08T09:53:11.792Z,42.72
2018-05-08T09:55:39.353Z,42.10
2018-05-08T09:58:06.832Z,43.04
2018-05-08T10:00:35.183Z,44.56
2018-05-08T10:03:02.681Z,42.62
2018-05-08T10:05:30.180Z,43.37
2018-05-08T10:07:57.662Z,41.22
2018-05-08T10:10:25.172Z,43.49
2018-05-08T10:12:52.668Z,41.94
2018-05-08T10:15:20.169Z,40.93
2018-05-08T10:17:47.644Z,42.66
2018-05-08T10:20:15.144Z,41.52
2018-05-08T10:22:42.608Z,40.94
2018-05-08T10:25:10.097Z,41.48
2018-05-08T10:27:37.600Z,42.21
2018-05-08T10:30:05.132Z,40.29
2018-05-08T10:32:32.614Z,41.02
2018-05-08T10:35:00.109Z,40.39
2018-05-08T10:37:27.637Z,39.52
2018-05-08T10:39:55.121Z,39.39
2018-05-08T10:42:22.596Z,40.03
2018-05-08T10:44:50.097Z,40.31
2018-05-08T10:47:17.675Z,40.56
2018-05-08T10:49:45.183Z,40.65
2018-05-08T10:52:12.699Z,39.46
2018-05-08T10:54:40.243Z,40.50
2018-05-08T10:57:07.724Z,42.26
2018-05-08T10:59:35.405Z,42.30
2018-05-08T11:02:02.889Z,41.69
2018-05-08T11:04:30.389Z,41.09
2018-05-08T11:06:57.877Z,40.48
2018-05-08T11:09:25.543Z,40.00
2018-05-08T11:11:53.043Z,40.00
2018-05-08T11:14:20.520Z,40.18
2018-05-08T11:16:48.027Z,40.36
2018-05-08T11:19:15.518Z,39.34
2018-05-08T11:21:42.991Z,38.96
2018-05-08T11:24:10.473Z,39.76
2018-05-08T11:26:38.022Z,39.18
2018-05-08T11:29:05.478Z,39.37
2018-05-08T11:31:32.961Z,40.65
2018-05-08T11:34:00.459Z,40.37
2018-05-08T11:36:27.955Z,41.12
2018-05-08T11:38:55.436Z,40.25
2018-05-08T11:41:22.933Z,40.00
2018-05-08T11:43:50.414Z,40.13
2018-05-08T11:46:17.960Z,41.77
2018-05-08T11:48:45.449Z,41.34
2018-05-08T11:51:12.932Z,42.00
2018-05-08T11:53:40.452Z,42.18
2018-05-08T11:56:07.943Z,40.41
2018-05-08T11:58:35.430Z,40.81
2018-05-08T12:01:02.968Z,40.00
2018-05-08T12:03:30.520Z,40.27
2018-05-08T12:05:58.038Z,42.43
2018-05-08T12:08:25.587Z,40.91
2018-05-08T12:10:53.110Z,41.15
2018-05-08T12:13:20.684Z,41.08
2018-05-08T12:15:48.197Z,40.46
2018-05-08T12:18:15.702Z,40.42
2018-05-08T12:20:43.198Z,39.33
2018-05-08T12:23:10.719Z,41.25
2018-05-08T12:25:38.245Z,39.78
2018-05-08T12:28:05.779Z,38.76
2018-05-08T12:30:33.318Z,38.69
2018-05-08T12:33:00.819Z,38.48
2018-05-08T12:35:28.319Z,37.40
2018-05-08T12:37:55.877Z,36.67
2018-05-08T12:40:23.369Z,36.14
2018-05-08T12:42:50.883Z,37.02
2018-05-08T12:45:18.361Z,37.69
2018-05-08T12:47:45.916Z,37.48
2018-05-08T12:50:13.413Z,38.14
2018-05-08T12:52:40.911Z,37.09
2018-05-08T12:55:08.413Z,37.03
2018-05-08T12:57:35.943Z,38.17
2018-05-08T13:00:03.463Z,37.52
2018-05-08T13:02:30.970Z,38.23
2018-05-08T13:04:58.451Z,36.62
2018-05-08T13:07:25.948Z,38.99
2018-05-08T13:09:53.449Z,37.00
2018-05-08T13:12:20.943Z,37.76
2018-05-08T13:14:48.470Z,35.50
2018-05-08T13:17:16.098Z,35.32
2018-05-08T13:19:43.600Z,36.65
2018-05-08T13:22:11.093Z,36.78
2018-05-08T13:24:38.579Z,36.93
2018-05-08T13:27:06.091Z,38.75
2018-05-08T13:29:33.570Z,37.00
2018-05-08T13:32:01.092Z,37.24
2018-05-08T13:34:28.609Z,36.18
2018-05-08T13:36:56.129Z,35.91
2018-05-08T13:39:23.631Z,38.29
2018-05-08T13:41:51.215Z,36.88
2018-05-08T13:44:18.678Z,36.78
2018-05-08T13:46:46.195Z,37.32
2018-05-08T13:49:13.693Z,37.15
2018-05-08T13:51:41.188Z,37.39
2018-05-08T13:54:08.657Z,37.09
2018-05-08T13:56:36.199Z,36.36
2018-05-08T13:59:03.720Z,36.03
2018-05-08T14:01:31.184Z,36.75
2018-05-08T14:03:58.675Z,35.34
2018-05-08T14:06:26.188Z,36.07
2018-05-08T14:08:53.673Z,36.33
2018-05-08T14:11:21.187Z,36.35
2018-05-08T14:13:48.699Z,36.51
2018-05-08T14:16:16.207Z,35.94
2018-05-08T14:18:43.709Z,36.92
2018-05-08T14:21:11.174Z,35.95
2018-05-08T14:23:38.668Z,35.78
2018-05-08T14:26:06.226Z,36.29
2018-05-08T14:28:33.701Z,35.78
2018-05-08T14:31:01.196Z,37.70
2018-05-08T14:33:28.698Z,36.51
2018-05-08T14:35:56.190Z,37.64
2018-05-08T14:38:23.819Z,36.56
2018-05-08T14:40:51.297Z,37.17
2018-05-08T14:43:18.786Z,36.45
2018-05-08T14:45:46.283Z,35.82
2018-05-08T14:48:13.808Z,35.93
2018-05-08T14:50:41.299Z,36.72
2018-05-08T14:53:08.857Z,37.29
2018-05-08T14:55:36.347Z,35.71
2018-05-08T14:58:03.858Z,36.40
2018-05-08T15:00:31.335Z,36.17
2018-05-08T15:02:58.817Z,35.93
2018-05-08T15:05:26.336Z,35.71
2018-05-08T15:07:53.840Z,36.25
2018-05-08T15:10:21.620Z,37.27
2018-05-08T15:12:49.124Z,38.00
2018-05-08T15:15:16.610Z,38.29
2018-05-08T15:17:44.888Z,36.58
2018-05-08T15:20:13.187Z,36.43
2018-05-08T15:22:40.795Z,36.62
2018-05-08T15:25:08.308Z,37.01
2018-05-08T15:27:35.793Z,36.20
2018-05-08T15:30:03.281Z,36.19
2018-05-08T15:32:30.771Z,36.14
2018-05-08T15:34:58.328Z,36.41
2018-05-08T15:37:25.851Z,36.16
2018-05-08T15:39:53.570Z,36.61
2018-05-08T15:42:21.049Z,36.16
2018-05-08T15:44:48.561Z,36.90
2018-05-08T15:47:16.173Z,36.04
2018-05-08T15:49:43.566Z,37.42
2018-05-08T15:52:11.064Z,36.40
2018-05-08T15:54:38.537Z,36.67
2018-05-08T15:57:06.028Z,37.20
2018-05-08T15:59:33.505Z,36.91
2018-05-08T16:02:00.991Z,35.63
2018-05-08T16:04:28.486Z,36.40
2018-05-08T16:06:55.974Z,36.56
2018-05-08T16:09:23.455Z,36.94
2018-05-08T16:11:50.991Z,37.31
2018-05-08T16:14:18.483Z,36.65
2018-05-08T16:16:45.991Z,36.71
2018-05-08T16:19:13.533Z,35.97
2018-05-08T16:21:41.037Z,38.05
2018-05-08T16:24:08.513Z,37.13
2018-05-08T16:26:36.017Z,36.97
2018-05-08T16:29:03.536Z,37.09
2018-05-08T16:31:31.087Z,38.19
2018-05-08T16:33:58.573Z,37.30
2018-05-08T16:36:26.058Z,37.92
2018-05-08T16:38:53.594Z,38.34
2018-05-08T16:41:21.195Z,38.65
2018-05-08T16:43:48.758Z,38.18
2018-05-08T16:46:16.235Z,39.07
2018-05-08T16:48:43.745Z,38.25
2018-05-08T16:51:11.612Z,37.95
2018-05-08T16:53:39.123Z,37.88
2018-05-08T16:56:06.613Z,39.07
2018-05-08T16:58:34.105Z,38.49
2018-05-08T17:01:01.591Z,38.83
2018-05-08T17:03:29.076Z,39.44
2018-05-08T17:05:56.571Z,39.10
2018-05-08T17:08:24.065Z,39.25
2018-05-08T17:10:51.553Z,39.47
2018-05-08T17:13:19.331Z,39.01
2018-05-08T17:15:46.815Z,38.94
2018-05-08T17:18:14.350Z,38.49
2018-05-08T17:20:41.851Z,38.53
2018-05-08T17:23:09.359Z,38.89
2018-05-08T17:25:36.870Z,38.60
2018-05-08T17:28:04.349Z,38.92
2018-05-08T17:30:31.840Z,39.06
2018-05-08T17:32:59.718Z,38.56
2018-05-08T17:35:27.216Z,39.08
2018-05-08T17:37:54.694Z,39.51
2018-05-08T17:40:22.179Z,39.94
2018-05-08T17:42:49.844Z,40.17
2018-05-08T17:45:17.342Z,40.57
2018-05-08T17:47:44.836Z,40.93
2018-05-08T17:50:12.351Z,40.45
2018-05-08T17:52:39.838Z,40.95
2018-05-08T17:55:07.325Z,41.12
2018-05-08T17:57:34.857Z,41.32
2018-05-08T18:00:02.441Z,41.25
2018-05-08T18:02:29.951Z,41.54
2018-05-08T18:04:57.633Z,41.74
2018-05-08T18:07:25.120Z,42.08
2018-05-08T18:09:52.613Z,42.22
2018-05-08T18:12:20.199Z,41.88
2018-05-08T18:14:47.727Z,42.15
2018-05-08T18:17:15.228Z,42.31
2018-05-08T18:19:42.939Z,42.52
2018-05-08T18:22:10.446Z,42.97
2018-05-08T18:24:37.938Z,43.58
2018-05-08T18:27:05.432Z,43.09
2018-05-08T18:29:32.964Z,43.23
2018-05-08T18:32:00.448Z,43.24
2018-05-08T18:34:28.003Z,43.69
2018-05-08T18:36:55.480Z,43.19
2018-05-08T18:39:23.221Z,43.42
2018-05-08T18:41:50.735Z,43.41
2018-05-08T18:44:18.253Z,43.54
2018-05-08T18:46:45.757Z,43.56
2018-05-08T18:49:13.343Z,43.60
2018-05-08T18:51:40.877Z,43.85
2018-05-08T18:54:08.369Z,43.84
2018-05-08T18:56:35.897Z,44.03
2018-05-08T18:59:03.561Z,44.19
2018-05-08T19:01:31.080Z,44.31
2018-05-08T19:03:58.591Z,44.26
2018-05-08T19:06:26.126Z,45.32
2018-05-08T19:08:53.601Z,45.70
2018-05-08T19:11:26.765Z,45.43
2018-05-08T19:13:54.372Z,45.48
2018-05-08T19:16:21.883Z,46.02
2018-05-08T19:18:54.937Z,46.14
2018-05-08T19:21:22.428Z,46.70
2018-05-08T19:23:55.640Z,46.71
2018-05-08T19:26:23.217Z,47.49
2018-05-08T19:28:56.341Z,47.43
2018-05-08T19:31:23.840Z,47.44
2018-05-08T19:33:51.347Z,47.61
2018-05-08T19:36:24.392Z,47.89
2018-05-08T19:38:51.925Z,47.95
2018-05-08T19:41:19.505Z,48.49
2018-05-08T19:43:46.999Z,48.93
2018-05-08T19:46:14.501Z,50.01
2018-05-08T19:48:42.177Z,50.02
2018-05-08T19:51:09.682Z,50.60
2018-05-08T19:53:37.398Z,51.09
2018-05-08T19:56:04.914Z,51.22
2018-05-08T19:58:32.401Z,51.21
2018-05-08T20:00:59.898Z,51.58
2018-05-08T20:03:27.392Z,51.77
2018-05-08T20:05:54.892Z,52.05
2018-05-08T20:08:22.376Z,51.74
2018-05-08T20:10:49.913Z,52.21
2018-05-08T20:13:17.412Z,52.43
2018-05-08T20:15:44.888Z,53.07
2018-05-08T20:18:12.391Z,53.20
2018-05-08T20:20:39.896Z,53.69
2018-05-08T20:23:07.375Z,53.87
2018-05-08T20:25:34.890Z,53.86
2018-05-08T20:28:02.377Z,54.30
2018-05-08T20:30:29.897Z,54.95
2018-05-08T20:32:57.357Z,55.05
2018-05-08T20:35:24.891Z,55.88
2018-05-08T20:37:52.373Z,55.91
2018-05-08T20:40:19.858Z,55.39
2018-05-08T20:42:47.369Z,53.73
2018-05-08T20:45:14.867Z,54.32
2018-05-08T20:47:42.340Z,53.69
2018-05-08T20:50:09.836Z,53.75
2018-05-08T20:52:37.455Z,53.17
2018-05-08T20:55:04.954Z,53.44
2018-05-08T20:57:32.420Z,53.52
2018-05-08T20:59:59.925Z,53.34
2018-05-08T21:02:27.712Z,53.57
2018-05-08T21:04:55.212Z,53.33
2018-05-08T21:07:22.690Z,53.30
2018-05-08T21:09:50.345Z,53.91
2018-05-08T21:12:17.839Z,53.75
2018-05-08T21:14:45.386Z,54.93
2018-05-08T21:17:12.844Z,54.97
2018-05-08T21:19:40.445Z,55.77
2018-05-08T21:22:07.944Z,55.98
2018-05-08T21:24:35.436Z,56.47
2018-05-08T21:27:02.948Z,56.33
2018-05-08T21:29:36.134Z,56.23
2018-05-08T21:32:03.744Z,56.50
2018-05-08T21:34:31.385Z,56.53
2018-05-08T21:36:58.876Z,57.52
2018-05-08T21:39:26.403Z,57.78
2018-05-08T21:41:53.931Z,58.10
2018-05-08T21:44:21.400Z,58.21
2018-05-08T21:46:48.983Z,58.23
2018-05-08T21:49:16.483Z,58.62
2018-05-08T21:51:44.013Z,58.37
2018-05-08T21:54:11.602Z,58.92
2018-05-08T21:56:39.321Z,59.53
2018-05-08T21:59:10.170Z,60.03
2018-05-08T22:01:37.813Z,60.40
2018-05-08T22:04:05.372Z,60.82
2018-05-08T22:06:32.901Z,60.72
2018-05-08T22:09:00.597Z,61.54
2018-05-08T22:11:28.132Z,61.71
2018-05-08T22:13:55.611Z,61.41
2018-05-08T22:16:23.098Z,61.87
2018-05-08T22:18:51.868Z,63.21
2018-05-08T22:21:19.359Z,63.13
2018-05-08T22:23:46.988Z,63.37
2018-05-08T22:26:14.665Z,64.38
2018-05-08T22:28:42.344Z,63.73
2018-05-08T22:31:09.849Z,64.15
2018-05-08T22:33:37.428Z,64.03
2018-05-08T22:36:04.942Z,64.46
2018-05-08T22:38:32.614Z,64.36
2018-05-08T22:41:00.323Z,65.19
2018-05-08T22:43:27.916Z,65.33
2018-05-08T22:45:55.645Z,65.21
2018-05-08T22:48:23.165Z,64.98
2018-05-08T22:50:50.824Z,64.66
2018-05-08T22:53:18.343Z,64.48
2018-05-08T22:55:45.881Z,63.86
2018-05-08T22:58:13.565Z,63.90
2018-05-08T23:00:41.098Z,63.19
2018-05-08T23:03:08.575Z,63.39
2018-05-08T23:05:36.053Z,62.57
2018-05-08T23:08:03.524Z,62.59
2018-05-08T23:10:31.137Z,62.94
2018-05-08T23:12:58.631Z,62.74
2018-05-08T23:15:26.407Z,62.36
2018-05-08T23:17:53.913Z,62.54
2018-05-08T23:20:21.419Z,63.92
2018-05-08T23:22:48.926Z,63.44
2018-05-08T23:25:16.418Z,62.60
2018-05-08T23:27:43.913Z,62.18
2018-05-08T23:30:11.415Z,61.72
2018-05-08T23:32:38.916Z,61.71
2018-05-08T23:35:06.412Z,61.67
2018-05-08T23:37:33.912Z,61.73
2018-05-08T23:40:01.419Z,61.76
2018-05-08T23:42:28.951Z,63.13
2018-05-08T23:44:56.459Z,62.36
2018-05-08T23:47:23.970Z,62.87
2018-05-08T23:49:51.536Z,63.26
2018-05-08T23:52:19.086Z,64.09
2018-05-08T23:54:46.580Z,64.99
2018-05-08T23:57:14.103Z,64.28
2018-05-08T23:59:41.583Z,63.90
